createdAt,value
2023-01-25T00:00:00.891Z,83.53
2023-01-25T00:02:28.400Z,83.55
2023-01-25T00:04:54.930Z,83.71
2023-01-25T00:07:21.611Z,83.42
2023-01-25T00:09:48.047Z,83.39
2023-01-25T00:12:14.520Z,83.10
2023-01-25T00:14:40.975Z,82.95
2023-01-25T00:17:07.406Z,83.34
2023-01-25T00:19:33.975Z,83.11
2023-01-25T00:22:00.450Z,83.35
2023-01-25T00:24:26.959Z,83.09
2023-01-25T00:26:53.387Z,83.22
2023-01-25T00:29:19.943Z,83.27
2023-01-25T00:31:58.729Z,83.26
2023-01-25T00:34:25.363Z,83.39
2023-01-25T00:36:56.905Z,83.50
2023-01-25T00:39:25.112Z,83.62
2023-01-25T00:41:51.549Z,83.76
2023-01-25T00:44:18.031Z,83.61
2023-01-25T00:46:44.678Z,84.01
2023-01-25T00:49:22.705Z,84.26
2023-01-25T00:51:49.868Z,84.05
2023-01-25T00:54:16.998Z,83.97
2023-01-25T00:56:43.643Z,83.93
2023-01-25T00:59:10.610Z,83.86
2023-01-25T01:01:37.430Z,83.82
2023-01-25T01:04:05.698Z,83.98
2023-01-25T01:06:35.588Z,83.78
2023-01-25T01:09:02.890Z,84.21
2023-01-25T01:11:31.416Z,84.27
2023-01-25T01:13:58.771Z,84.43
2023-01-25T01:16:26.208Z,84.52
2023-01-25T01:18:53.323Z,84.94
2023-01-25T01:21:20.532Z,84.82
2023-01-25T01:23:48.197Z,84.79
2023-01-25T01:26:19.232Z,84.22
2023-01-25T01:28:46.303Z,84.33
2023-01-25T01:31:24.110Z,84.51
2023-01-25T01:33:52.543Z,84.45
2023-01-25T01:36:20.719Z,84.29
2023-01-25T01:38:47.841Z,84.09
2023-01-25T01:41:15.457Z,83.25
2023-01-25T01:43:42.925Z,83.11
2023-01-25T01:46:27.687Z,83.54
2023-01-25T01:49:38.299Z,83.62
2023-01-25T01:52:11.093Z,84.26
2023-01-25T01:54:55.320Z,83.90
2023-01-25T01:57:32.347Z,83.76
2023-01-25T02:00:04.875Z,82.95
2023-01-25T02:02:31.385Z,83.59
2023-01-25T02:05:00.988Z,82.80
2023-01-25T02:07:35.955Z,82.89
2023-01-25T02:10:05.663Z,82.68
2023-01-25T02:12:32.420Z,82.75
2023-01-25T02:14:58.923Z,82.92
2023-01-25T02:17:34.282Z,82.33
2023-01-25T02:20:37.744Z,83.01
2023-01-25T02:23:06.980Z,83.39
2023-01-25T02:25:33.385Z,83.71
2023-01-25T02:28:07.295Z,83.84
2023-01-25T02:30:34.472Z,84.55
2023-01-25T02:33:01.072Z,84.58
2023-01-25T02:36:09.078Z,84.41
2023-01-25T02:38:38.849Z,84.74
2023-01-25T02:41:13.689Z,84.38
2023-01-25T02:43:40.104Z,84.13
2023-01-25T02:46:31.847Z,84.01
2023-01-25T02:48:59.920Z,84.24
2023-01-25T02:51:29.758Z,84.37
2023-01-25T02:53:57.252Z,84.44
2023-01-25T02:56:23.841Z,84.82
2023-01-25T02:58:50.590Z,84.12
2023-01-25T03:01:17.373Z,83.96
2023-01-25T03:03:43.940Z,83.87
2023-01-25T03:06:10.889Z,83.80
2023-01-25T03:08:37.344Z,83.12
2023-01-25T03:11:06.248Z,83.07
2023-01-25T03:13:34.096Z,83.74
2023-01-25T03:16:07.698Z,83.60
2023-01-25T03:18:34.706Z,83.52
2023-01-25T03:21:20.145Z,83.77
2023-01-25T03:23:47.909Z,84.29
2023-01-25T03:26:20.602Z,84.63
2023-01-25T03:28:47.148Z,84.52
2023-01-25T03:31:15.357Z,84.75
2023-01-25T03:33:42.402Z,84.81
2023-01-25T03:36:10.446Z,84.72
2023-01-25T03:38:37.488Z,84.15
2023-01-25T03:41:04.341Z,84.07
2023-01-25T03:43:30.852Z,83.56
2023-01-25T03:45:59.504Z,83.46
2023-01-25T03:48:27.390Z,83.29
2023-01-25T03:50:58.264Z,83.35
2023-01-25T03:53:29.830Z,83.11
2023-01-25T03:55:58.075Z,82.81
2023-01-25T03:58:25.223Z,82.50
2023-01-25T04:00:55.320Z,83.28
2023-01-25T04:03:22.235Z,83.73
2023-01-25T04:05:48.960Z,84.02
2023-01-25T04:08:15.480Z,84.49
2023-01-25T04:10:41.927Z,84.13
2023-01-25T04:13:08.834Z,83.70
2023-01-25T04:15:35.658Z,83.64
2023-01-25T04:18:02.306Z,83.42
2023-01-25T04:20:28.842Z,83.45
2023-01-25T04:22:55.224Z,83.20
2023-01-25T04:25:21.675Z,83.08
2023-01-25T04:27:49.615Z,83.16
2023-01-25T04:30:16.298Z,83.35
2023-01-25T04:32:43.144Z,82.92
2023-01-25T04:35:09.970Z,82.93
2023-01-25T04:37:36.705Z,82.82
2023-01-25T04:40:04.114Z,82.59
2023-01-25T04:42:30.669Z,82.74
2023-01-25T04:44:57.068Z,82.97
2023-01-25T04:47:23.502Z,82.95
2023-01-25T04:49:49.911Z,82.61
2023-01-25T04:52:16.349Z,82.61
2023-01-25T04:54:42.923Z,82.69
2023-01-25T04:57:09.369Z,82.59
2023-01-25T04:59:35.752Z,82.21
2023-01-25T05:02:02.223Z,82.23
2023-01-25T05:04:28.636Z,82.89
2023-01-25T05:06:55.123Z,82.70
2023-01-25T05:09:21.611Z,83.46
2023-01-25T05:11:48.026Z,83.39
2023-01-25T05:14:14.481Z,83.68
2023-01-25T05:16:40.914Z,83.67
2023-01-25T05:19:09.817Z,84.12
2023-01-25T05:21:54.828Z,84.32
2023-01-25T05:24:21.290Z,83.44
2023-01-25T05:27:06.100Z,82.88
2023-01-25T05:29:36.255Z,82.76
2023-01-25T05:32:05.085Z,82.47
2023-01-25T05:34:31.927Z,81.32
2023-01-25T05:36:58.631Z,81.80
2023-01-25T05:39:25.163Z,82.24
2023-01-25T05:41:52.122Z,82.01
2023-01-25T05:44:18.990Z,81.34
2023-01-25T05:46:45.698Z,81.61
2023-01-25T05:49:12.642Z,81.57
2023-01-25T05:51:39.707Z,82.08
2023-01-25T05:54:07.203Z,82.75
2023-01-25T05:56:34.266Z,82.81
2023-01-25T05:59:17.278Z,82.37
2023-01-25T06:01:43.945Z,81.73
2023-01-25T06:04:14.899Z,81.22
2023-01-25T06:06:41.524Z,81.99
2023-01-25T06:09:08.027Z,82.44
2023-01-25T06:11:34.401Z,83.19
2023-01-25T06:14:00.832Z,83.87
2023-01-25T06:16:27.626Z,84.11
2023-01-25T06:18:54.020Z,84.44
2023-01-25T06:21:20.492Z,84.35
2023-01-25T06:23:46.910Z,84.75
2023-01-25T06:26:15.497Z,84.49
2023-01-25T06:28:42.086Z,84.05
2023-01-25T06:31:11.214Z,84.10
2023-01-25T06:33:38.469Z,84.09
2023-01-25T06:36:08.003Z,84.24
2023-01-25T06:38:37.551Z,84.59
2023-01-25T06:41:06.543Z,84.60
2023-01-25T06:43:34.098Z,84.16
2023-01-25T06:46:01.915Z,83.84
2023-01-25T06:48:29.690Z,83.83
2023-01-25T06:50:58.354Z,83.55
2023-01-25T06:53:30.541Z,83.50
2023-01-25T06:56:18.177Z,83.20
2023-01-25T06:58:45.627Z,83.49
2023-01-25T07:01:19.806Z,83.46
2023-01-25T07:03:51.209Z,83.78
2023-01-25T07:06:17.943Z,83.70
2023-01-25T07:08:44.395Z,83.47
2023-01-25T07:11:13.915Z,82.70
2023-01-25T07:13:45.774Z,82.56
2023-01-25T07:16:14.868Z,82.33
2023-01-25T07:18:42.163Z,81.95
2023-01-25T07:21:13.108Z,81.91
2023-01-25T07:23:40.124Z,82.16
2023-01-25T07:26:10.106Z,82.17
2023-01-25T07:28:36.521Z,82.72
2023-01-25T07:31:07.010Z,82.41
2023-01-25T07:33:34.236Z,81.47
2023-01-25T07:36:06.302Z,81.34
2023-01-25T07:38:32.752Z,81.68
2023-01-25T07:41:00.749Z,82.02
2023-01-25T07:43:27.541Z,82.30
2023-01-25T07:45:54.253Z,81.74
2023-01-25T07:48:21.154Z,81.69
2023-01-25T07:50:49.605Z,81.61
2023-01-25T07:53:16.959Z,81.72
2023-01-25T07:55:43.403Z,81.78
2023-01-25T07:58:12.981Z,82.58
2023-01-25T08:00:40.287Z,82.47
2023-01-25T08:03:08.028Z,82.03
2023-01-25T08:05:34.364Z,82.15
2023-01-25T08:08:00.816Z,81.83
2023-01-25T08:10:27.216Z,80.95
2023-01-25T08:12:53.785Z,81.36
2023-01-25T08:15:20.156Z,81.22
2023-01-25T08:17:46.559Z,80.29
2023-01-25T08:20:13.932Z,81.06
2023-01-25T08:22:40.319Z,80.89
2023-01-25T08:25:07.703Z,81.01
2023-01-25T08:27:34.298Z,81.21
2023-01-25T08:30:00.775Z,81.09
2023-01-25T08:32:27.173Z,80.95
2023-01-25T08:34:53.542Z,81.92
2023-01-25T08:37:20.021Z,81.86
2023-01-25T08:39:46.454Z,81.45
2023-01-25T08:42:12.827Z,81.49
2023-01-25T08:44:39.228Z,80.64
2023-01-25T08:47:06.070Z,81.08
2023-01-25T08:49:34.427Z,81.00
2023-01-25T08:52:00.989Z,81.34
2023-01-25T08:54:27.498Z,81.92
2023-01-25T08:56:54.006Z,81.17
2023-01-25T08:59:20.472Z,80.53
2023-01-25T09:01:46.835Z,80.81
2023-01-25T09:04:13.340Z,80.80
2023-01-25T09:06:39.823Z,80.72
2023-01-25T09:09:08.398Z,80.67
2023-01-25T09:11:37.113Z,81.11
2023-01-25T09:14:04.636Z,80.76
2023-01-25T09:16:31.330Z,80.21
2023-01-25T09:19:00.357Z,80.52
2023-01-25T09:21:27.732Z,80.71
2023-01-25T09:24:09.666Z,80.49
2023-01-25T09:26:39.271Z,79.86
2023-01-25T09:29:08.233Z,80.27
2023-01-25T09:31:35.574Z,80.18
2023-01-25T09:34:02.425Z,78.77
2023-01-25T09:36:28.795Z,79.17
2023-01-25T09:38:55.845Z,79.24
2023-01-25T09:41:49.889Z,78.79
2023-01-25T09:44:34.495Z,78.34
2023-01-25T09:47:31.063Z,78.59
2023-01-25T09:50:32.551Z,78.57
2023-01-25T09:53:06.447Z,78.85
2023-01-25T09:55:33.844Z,78.83
2023-01-25T09:58:02.633Z,78.79
2023-01-25T10:00:41.475Z,77.76
2023-01-25T10:03:25.905Z,76.99
2023-01-25T10:05:56.823Z,77.06
2023-01-25T10:08:53.688Z,77.32
2023-01-25T10:11:25.011Z,78.21
2023-01-25T10:13:51.802Z,77.67
2023-01-25T10:16:32.964Z,78.01
2023-01-25T10:19:20.807Z,76.80
2023-01-25T10:21:57.236Z,77.25
2023-01-25T10:24:26.384Z,77.73
2023-01-25T10:26:57.336Z,76.72
2023-01-25T10:29:28.920Z,77.46
2023-01-25T10:32:16.109Z,77.19
2023-01-25T10:34:56.379Z,77.02
2023-01-25T10:37:28.288Z,77.82
2023-01-25T10:40:13.513Z,77.43
2023-01-25T10:42:50.543Z,76.90
2023-01-25T10:45:17.517Z,76.64
2023-01-25T10:47:48.423Z,76.12
2023-01-25T10:50:46.490Z,77.00
2023-01-25T10:53:26.717Z,76.63
2023-01-25T10:56:10.742Z,77.26
2023-01-25T10:58:39.703Z,77.62
2023-01-25T11:01:08.835Z,77.62
2023-01-25T11:03:38.661Z,76.98
2023-01-25T11:06:06.456Z,76.72
2023-01-25T11:08:34.854Z,76.61
2023-01-25T11:11:21.512Z,75.65
2023-01-25T11:13:48.186Z,75.17
2023-01-25T11:16:38.851Z,75.07
2023-01-25T11:19:41.958Z,75.36
2023-01-25T11:22:20.475Z,75.34
2023-01-25T11:24:47.490Z,75.01
2023-01-25T11:27:20.363Z,75.79
2023-01-25T11:30:08.306Z,75.65
2023-01-25T11:32:35.122Z,75.98
2023-01-25T11:35:01.987Z,76.02
2023-01-25T11:37:56.165Z,76.54
2023-01-25T11:40:37.623Z,76.31
2023-01-25T11:43:44.167Z,76.92
2023-01-25T11:46:50.438Z,76.85
2023-01-25T11:49:28.846Z,76.54
2023-01-25T11:52:16.557Z,75.72
2023-01-25T11:54:56.786Z,76.24
2023-01-25T11:57:35.249Z,75.33
2023-01-25T12:00:22.714Z,75.96
2023-01-25T12:03:07.966Z,76.28
2023-01-25T12:05:59.898Z,75.36
2023-01-25T12:08:40.836Z,75.92
2023-01-25T12:11:26.008Z,75.66
2023-01-25T12:14:04.501Z,76.56
2023-01-25T12:16:53.494Z,76.54
2023-01-25T12:19:23.020Z,76.31
2023-01-25T12:22:06.027Z,76.38
2023-01-25T12:24:37.489Z,76.44
2023-01-25T12:27:19.030Z,76.21
2023-01-25T12:29:52.303Z,75.94
2023-01-25T12:32:32.605Z,74.98
2023-01-25T12:35:23.830Z,74.56
2023-01-25T12:37:52.989Z,75.19
2023-01-25T12:40:25.836Z,75.98
2023-01-25T12:42:56.835Z,76.44
2023-01-25T12:45:31.659Z,76.24
2023-01-25T12:48:00.932Z,76.54
2023-01-25T12:50:51.318Z,76.01
2023-01-25T12:53:36.229Z,76.45
2023-01-25T12:56:06.562Z,76.27
2023-01-25T12:58:44.207Z,75.72
2023-01-25T13:01:22.679Z,75.56
2023-01-25T13:04:28.334Z,75.45
2023-01-25T13:07:20.715Z,74.59
2023-01-25T13:10:23.597Z,75.61
2023-01-25T13:12:57.829Z,76.10
2023-01-25T13:15:44.731Z,75.15
2023-01-25T13:18:29.655Z,76.10
2023-01-25T13:20:58.034Z,76.62
2023-01-25T13:23:32.720Z,75.46
2023-01-25T13:26:20.904Z,76.37
2023-01-25T13:28:52.608Z,75.29
2023-01-25T13:31:59.044Z,75.91
2023-01-25T13:34:35.569Z,76.56
2023-01-25T13:37:42.639Z,76.91
2023-01-25T13:40:31.366Z,76.33
2023-01-25T13:43:01.987Z,75.80
2023-01-25T13:45:29.498Z,76.43
2023-01-25T13:48:19.826Z,75.90
2023-01-25T13:50:53.314Z,76.18
2023-01-25T13:53:23.440Z,77.12
2023-01-25T13:55:53.593Z,76.92
2023-01-25T13:58:22.821Z,76.05
2023-01-25T14:01:13.095Z,75.32
2023-01-25T14:03:56.806Z,76.17
2023-01-25T14:06:31.960Z,75.45
2023-01-25T14:09:03.049Z,75.90
2023-01-25T14:11:32.133Z,75.52
2023-01-25T14:14:18.762Z,75.38
2023-01-25T14:16:45.427Z,75.39
2023-01-25T14:19:26.468Z,75.91
2023-01-25T14:22:27.364Z,75.34
2023-01-25T14:25:15.476Z,75.68
2023-01-25T14:27:53.807Z,75.51
2023-01-25T14:30:26.297Z,74.97
2023-01-25T14:32:58.998Z,74.66
2023-01-25T14:35:53.837Z,75.47
2023-01-25T14:38:34.657Z,75.02
2023-01-25T14:41:16.562Z,74.34
2023-01-25T14:43:46.099Z,74.54
2023-01-25T14:46:26.659Z,74.90
2023-01-25T14:49:12.996Z,75.16
2023-01-25T14:51:44.969Z,75.01
2023-01-25T14:54:19.799Z,75.20
2023-01-25T14:56:49.501Z,74.74
2023-01-25T14:59:41.666Z,74.76
2023-01-25T15:02:29.175Z,75.25
2023-01-25T15:05:04.860Z,75.35
2023-01-25T15:08:06.396Z,75.06
2023-01-25T15:10:37.293Z,75.62
2023-01-25T15:13:14.080Z,75.57
2023-01-25T15:15:59.936Z,75.49
2023-01-25T15:18:52.332Z,75.57
2023-01-25T15:21:19.826Z,75.10
2023-01-25T15:23:48.807Z,75.15
2023-01-25T15:26:21.500Z,75.21
2023-01-25T15:28:49.706Z,75.46
2023-01-25T15:31:37.276Z,74.33
2023-01-25T15:34:04.714Z,74.93
2023-01-25T15:36:32.808Z,75.26
2023-01-25T15:38:59.604Z,75.50
2023-01-25T15:41:26.058Z,75.43
2023-01-25T15:43:52.541Z,75.81
2023-01-25T15:46:25.003Z,75.73
2023-01-25T15:48:51.911Z,75.71
2023-01-25T15:51:19.111Z,75.66
2023-01-25T15:53:46.733Z,75.86
2023-01-25T15:56:16.185Z,74.73
2023-01-25T15:58:46.124Z,75.05
2023-01-25T16:01:12.946Z,75.54
2023-01-25T16:03:41.473Z,75.45
2023-01-25T16:06:32.141Z,75.83
2023-01-25T16:09:00.151Z,75.61
2023-01-25T16:11:27.509Z,75.81
2023-01-25T16:13:54.044Z,75.61
2023-01-25T16:16:23.223Z,76.06
2023-01-25T16:18:50.120Z,76.41
2023-01-25T16:21:17.062Z,76.39
2023-01-25T16:23:43.579Z,76.19
2023-01-25T16:26:23.294Z,76.44
2023-01-25T16:28:49.796Z,76.35
2023-01-25T16:31:31.443Z,76.59
2023-01-25T16:33:58.872Z,76.63
2023-01-25T16:36:25.523Z,76.17
2023-01-25T16:38:52.424Z,76.27
2023-01-25T16:41:19.005Z,76.74
2023-01-25T16:43:48.026Z,76.82
2023-01-25T16:46:20.247Z,76.59
2023-01-25T16:48:48.665Z,76.29
2023-01-25T16:51:19.623Z,76.05
2023-01-25T16:53:47.182Z,76.44
2023-01-25T16:56:22.042Z,76.16
2023-01-25T16:58:50.129Z,75.43
2023-01-25T17:01:18.606Z,76.60
2023-01-25T17:03:45.448Z,76.11
2023-01-25T17:06:23.797Z,76.58
2023-01-25T17:08:51.324Z,76.60
2023-01-25T17:11:22.616Z,76.71
2023-01-25T17:13:53.718Z,76.61
2023-01-25T17:16:21.838Z,76.74
2023-01-25T17:18:48.458Z,76.09
2023-01-25T17:21:15.091Z,75.35
2023-01-25T17:23:41.979Z,76.01
2023-01-25T17:26:13.105Z,76.22
2023-01-25T17:28:40.114Z,76.50
2023-01-25T17:31:14.401Z,76.37
2023-01-25T17:33:41.295Z,76.38
2023-01-25T17:36:09.195Z,76.43
2023-01-25T17:38:35.710Z,76.57
2023-01-25T17:41:06.306Z,76.03
2023-01-25T17:43:34.476Z,75.99
2023-01-25T17:46:11.373Z,75.84
2023-01-25T17:48:37.821Z,76.09
2023-01-25T17:51:04.760Z,76.43
2023-01-25T17:53:31.200Z,76.53
2023-01-25T17:56:02.907Z,76.10
2023-01-25T17:58:30.444Z,76.37
2023-01-25T18:01:05.157Z,76.75
2023-01-25T18:03:39.113Z,76.23
2023-01-25T18:06:09.407Z,76.13
2023-01-25T18:08:43.801Z,76.18
2023-01-25T18:11:12.614Z,76.35
2023-01-25T18:13:40.809Z,76.67
2023-01-25T18:16:09.428Z,76.64
2023-01-25T18:18:41.667Z,76.93
2023-01-25T18:21:11.011Z,77.23
2023-01-25T18:23:38.212Z,77.29
2023-01-25T18:26:06.467Z,76.95
2023-01-25T18:28:33.083Z,76.98
2023-01-25T18:31:02.521Z,77.28
2023-01-25T18:33:29.390Z,77.08
2023-01-25T18:35:57.391Z,76.82
2023-01-25T18:38:24.252Z,77.48
2023-01-25T18:40:52.789Z,77.90
2023-01-25T18:43:20.060Z,78.15
2023-01-25T18:45:57.088Z,77.57
2023-01-25T18:48:30.521Z,77.50
2023-01-25T18:51:03.922Z,76.91
2023-01-25T18:53:31.953Z,76.87
2023-01-25T18:56:03.277Z,77.08
2023-01-25T18:58:34.157Z,77.63
2023-01-25T19:01:05.964Z,77.76
2023-01-25T19:03:32.817Z,77.60
2023-01-25T19:05:59.341Z,76.81
2023-01-25T19:08:27.325Z,76.92
2023-01-25T19:11:05.855Z,76.46
2023-01-25T19:13:37.095Z,77.03
2023-01-25T19:16:08.844Z,77.33
2023-01-25T19:18:37.361Z,77.01
2023-01-25T19:21:08.768Z,77.36
2023-01-25T19:23:37.035Z,77.67
2023-01-25T19:26:04.818Z,77.71
2023-01-25T19:28:31.525Z,77.61
2023-01-25T19:31:15.379Z,77.55
2023-01-25T19:33:42.640Z,77.43
2023-01-25T19:36:15.375Z,77.53
2023-01-25T19:38:42.792Z,77.33
2023-01-25T19:41:18.707Z,76.92
2023-01-25T19:43:45.652Z,76.83
2023-01-25T19:46:14.514Z,77.31
2023-01-25T19:48:42.274Z,77.51
2023-01-25T19:51:11.632Z,77.18
2023-01-25T19:53:38.326Z,77.26
2023-01-25T19:56:06.130Z,77.39
2023-01-25T19:58:32.728Z,77.37
2023-01-25T20:01:10.002Z,77.37
2023-01-25T20:03:37.362Z,77.00
2023-01-25T20:06:07.017Z,76.88
2023-01-25T20:08:36.037Z,77.11
2023-01-25T20:11:20.632Z,76.66
2023-01-25T20:13:48.571Z,77.23
2023-01-25T20:16:18.372Z,77.49
2023-01-25T20:18:46.330Z,77.49
2023-01-25T20:21:16.302Z,77.59
2023-01-25T20:23:44.543Z,77.31
2023-01-25T20:26:14.455Z,77.42
2023-01-25T20:28:42.455Z,77.35
2023-01-25T20:31:27.199Z,77.31
2023-01-25T20:33:56.037Z,77.85
2023-01-25T20:36:23.369Z,76.95
2023-01-25T20:38:50.242Z,77.31
2023-01-25T20:41:18.405Z,77.41
2023-01-25T20:43:50.804Z,76.65
2023-01-25T20:46:18.805Z,76.39
2023-01-25T20:48:45.560Z,76.87
2023-01-25T20:51:16.791Z,76.93
2023-01-25T20:53:45.073Z,77.15
2023-01-25T20:56:13.186Z,77.09
2023-01-25T20:58:39.871Z,77.39
2023-01-25T21:01:18.042Z,76.99
2023-01-25T21:03:44.484Z,76.99
2023-01-25T21:06:12.025Z,77.21
2023-01-25T21:08:38.560Z,77.23
2023-01-25T21:11:05.511Z,77.31
2023-01-25T21:13:32.022Z,77.36
2023-01-25T21:16:01.145Z,76.98
2023-01-25T21:18:29.178Z,77.53
2023-01-25T21:21:09.273Z,77.75
2023-01-25T21:23:38.139Z,77.68
2023-01-25T21:26:05.834Z,77.50
2023-01-25T21:28:33.461Z,77.48
2023-01-25T21:31:10.977Z,77.65
2023-01-25T21:33:38.052Z,77.24
2023-01-25T21:36:08.645Z,77.43
2023-01-25T21:38:36.034Z,77.44
2023-01-25T21:41:04.613Z,77.22
2023-01-25T21:43:52.561Z,77.34
2023-01-25T21:46:26.662Z,77.48
2023-01-25T21:49:12.742Z,77.03
2023-01-25T21:51:51.451Z,77.48
2023-01-25T21:54:26.129Z,77.41
2023-01-25T21:56:55.149Z,77.45
2023-01-25T21:59:22.527Z,77.45
2023-01-25T22:01:49.391Z,77.41
2023-01-25T22:04:17.806Z,77.27
2023-01-25T22:06:45.161Z,77.04
2023-01-25T22:09:13.628Z,76.82
2023-01-25T22:11:40.612Z,77.18
2023-01-25T22:14:07.296Z,77.11
2023-01-25T22:16:33.714Z,77.29
2023-01-25T22:19:00.503Z,76.91
2023-01-25T22:21:30.758Z,76.72
2023-01-25T22:23:58.670Z,76.96
2023-01-25T22:26:29.671Z,77.14
2023-01-25T22:28:59.979Z,77.08
2023-01-25T22:31:30.255Z,76.89
2023-01-25T22:33:59.280Z,76.42
2023-01-25T22:36:28.377Z,76.89
2023-01-25T22:38:55.162Z,76.94
2023-01-25T22:41:24.158Z,77.08
2023-01-25T22:43:50.714Z,76.80
2023-01-25T22:46:22.484Z,76.90
2023-01-25T22:48:49.295Z,77.16
2023-01-25T22:51:22.177Z,77.02
2023-01-25T22:53:49.874Z,76.95
2023-01-25T22:56:19.440Z,76.78
2023-01-25T22:58:47.323Z,76.59
2023-01-25T23:01:17.311Z,77.01
2023-01-25T23:03:44.128Z,76.88
2023-01-25T23:06:16.856Z,76.81
2023-01-25T23:08:44.111Z,77.31
2023-01-25T23:11:16.986Z,77.23
2023-01-25T23:14:03.208Z,77.07
2023-01-25T23:16:30.346Z,77.02
2023-01-25T23:18:56.827Z,77.25
2023-01-25T23:21:27.282Z,77.12
2023-01-25T23:24:00.575Z,77.22
2023-01-25T23:26:27.683Z,77.17
2023-01-25T23:28:57.100Z,76.48
2023-01-25T23:31:25.221Z,77.06
2023-01-25T23:33:54.234Z,77.24
2023-01-25T23:36:23.999Z,77.16
2023-01-25T23:38:54.651Z,77.44
2023-01-25T23:41:23.613Z,77.07
2023-01-25T23:43:50.256Z,76.60
2023-01-25T23:46:17.451Z,76.39
2023-01-25T23:48:45.558Z,76.89
2023-01-25T23:51:13.828Z,76.68
2023-01-25T23:53:41.210Z,76.73
2023-01-25T23:56:12.323Z,76.70
2023-01-25T23:58:39.654Z,76.70
